sensor_id;sensor_type;location;lat;lon;timestamp;P1;durP1;ratioP1;P2;durP2;ratioP2
46767;SDS011;69007;48.978;18.066;2023-11-21T00:01:39;3.92;;;2.25;;
46767;SDS011;69007;48.978;18.066;2023-11-21T00:04:05;3.35;;;2.50;;
46767;SDS011;69007;48.978;18.066;2023-11-21T00:06:32;3.92;;;2.08;;
46767;SDS011;69007;48.978;18.066;2023-11-21T00:08:57;6.45;;;2.50;;
46767;SDS011;69007;48.978;18.066;2023-11-21T00:11:23;2.53;;;1.98;;
46767;SDS011;69007;48.978;18.066;2023-11-21T00:13:50;7.40;;;2.10;;
46767;SDS011;69007;48.978;18.066;2023-11-21T00:16:15;2.15;;;1.63;;
46767;SDS011;69007;48.978;18.066;2023-11-21T00:18:40;3.22;;;2.17;;
46767;SDS011;69007;48.978;18.066;2023-11-21T00:21:06;5.13;;;1.77;;
46767;SDS011;69007;48.978;18.066;2023-11-21T00:23:32;5.00;;;1.85;;
46767;SDS011;69007;48.978;18.066;2023-11-21T00:25:57;6.38;;;1.88;;
46767;SDS011;69007;48.978;18.066;2023-11-21T00:28:22;4.13;;;1.95;;
46767;SDS011;69007;48.978;18.066;2023-11-21T00:30:48;4.60;;;2.17;;
46767;SDS011;69007;48.978;18.066;2023-11-21T00:33:13;4.90;;;2.03;;
46767;SDS011;69007;48.978;18.066;2023-11-21T00:35:38;6.18;;;1.83;;
46767;SDS011;69007;48.978;18.066;2023-11-21T00:38:04;5.82;;;2.33;;
46767;SDS011;69007;48.978;18.066;2023-11-21T00:40:29;5.82;;;1.98;;
46767;SDS011;69007;48.978;18.066;2023-11-21T00:42:54;4.40;;;1.70;;
46767;SDS011;69007;48.978;18.066;2023-11-21T00:45:21;6.07;;;2.00;;
46767;SDS011;69007;48.978;18.066;2023-11-21T00:47:46;5.53;;;2.35;;
46767;SDS011;69007;48.978;18.066;2023-11-21T00:50:11;5.30;;;2.00;;
46767;SDS011;69007;48.978;18.066;2023-11-21T00:52:37;3.67;;;2.20;;
46767;SDS011;69007;48.978;18.066;2023-11-21T00:55:03;8.63;;;2.47;;
46767;SDS011;69007;48.978;18.066;2023-11-21T00:57:29;3.20;;;2.17;;
46767;SDS011;69007;48.978;18.066;2023-11-21T00:59:54;3.35;;;1.80;;
46767;SDS011;69007;48.978;18.066;2023-11-21T01:02:19;3.70;;;1.73;;
46767;SDS011;69007;48.978;18.066;2023-11-21T01:04:45;5.03;;;1.58;;
46767;SDS011;69007;48.978;18.066;2023-11-21T01:07:10;3.15;;;1.63;;
46767;SDS011;69007;48.978;18.066;2023-11-21T01:09:35;3.80;;;2.05;;
46767;SDS011;69007;48.978;18.066;2023-11-21T01:12:01;3.78;;;1.83;;
46767;SDS011;69007;48.978;18.066;2023-11-21T01:14:26;4.13;;;1.98;;
46767;SDS011;69007;48.978;18.066;2023-11-21T01:16:52;6.82;;;1.95;;
46767;SDS011;69007;48.978;18.066;2023-11-21T01:19:18;6.93;;;2.42;;
46767;SDS011;69007;48.978;18.066;2023-11-21T01:21:43;9.63;;;1.95;;
46767;SDS011;69007;48.978;18.066;2023-11-21T01:24:09;11.00;;;2.03;;
46767;SDS011;69007;48.978;18.066;2023-11-21T01:26:34;5.45;;;1.65;;
46767;SDS011;69007;48.978;18.066;2023-11-21T01:28:59;8.77;;;2.03;;
46767;SDS011;69007;48.978;18.066;2023-11-21T01:31:25;6.05;;;1.70;;
46767;SDS011;69007;48.978;18.066;2023-11-21T01:33:54;6.05;;;1.88;;
46767;SDS011;69007;48.978;18.066;2023-11-21T01:36:20;5.22;;;1.67;;
46767;SDS011;69007;48.978;18.066;2023-11-21T01:38:46;1.77;;;1.50;;
46767;SDS011;69007;48.978;18.066;2023-11-21T01:41:13;5.13;;;1.90;;
46767;SDS011;69007;48.978;18.066;2023-11-21T01:43:38;2.50;;;1.60;;
46767;SDS011;69007;48.978;18.066;2023-11-21T01:46:04;2.80;;;1.50;;
46767;SDS011;69007;48.978;18.066;2023-11-21T01:48:31;4.00;;;1.95;;
46767;SDS011;69007;48.978;18.066;2023-11-21T01:50:56;2.90;;;1.85;;
46767;SDS011;69007;48.978;18.066;2023-11-21T01:53:23;3.10;;;2.17;;
46767;SDS011;69007;48.978;18.066;2023-11-21T01:55:50;3.05;;;1.67;;
46767;SDS011;69007;48.978;18.066;2023-11-21T01:58:16;3.78;;;1.60;;
46767;SDS011;69007;48.978;18.066;2023-11-21T02:00:42;5.75;;;1.80;;
46767;SDS011;69007;48.978;18.066;2023-11-21T02:03:08;6.18;;;1.60;;
46767;SDS011;69007;48.978;18.066;2023-11-21T02:05:35;2.17;;;1.90;;
46767;SDS011;69007;48.978;18.066;2023-11-21T02:08:01;6.65;;;1.75;;
46767;SDS011;69007;48.978;18.066;2023-11-21T02:10:27;2.92;;;2.03;;
46767;SDS011;69007;48.978;18.066;2023-11-21T02:12:54;6.18;;;1.80;;
46767;SDS011;69007;48.978;18.066;2023-11-21T02:15:21;2.70;;;1.52;;
46767;SDS011;69007;48.978;18.066;2023-11-21T02:17:48;5.32;;;2.15;;
46767;SDS011;69007;48.978;18.066;2023-11-21T02:20:17;5.65;;;1.98;;
46767;SDS011;69007;48.978;18.066;2023-11-21T02:22:52;2.85;;;1.70;;
46767;SDS011;69007;48.978;18.066;2023-11-21T02:27:56;8.63;;;2.13;;
46767;SDS011;69007;48.978;18.066;2023-11-21T02:30:22;4.75;;;2.03;;
46767;SDS011;69007;48.978;18.066;2023-11-21T02:32:50;2.97;;;1.88;;
46767;SDS011;69007;48.978;18.066;2023-11-21T02:35:18;3.35;;;1.90;;
46767;SDS011;69007;48.978;18.066;2023-11-21T02:37:46;7.65;;;1.95;;
46767;SDS011;69007;48.978;18.066;2023-11-21T02:40:11;4.85;;;1.70;;
46767;SDS011;69007;48.978;18.066;2023-11-21T02:42:37;3.10;;;1.48;;
46767;SDS011;69007;48.978;18.066;2023-11-21T02:45:03;2.22;;;1.80;;
46767;SDS011;69007;48.978;18.066;2023-11-21T02:47:30;1.45;;;1.35;;
46767;SDS011;69007;48.978;18.066;2023-11-21T02:49:55;5.05;;;2.20;;
46767;SDS011;69007;48.978;18.066;2023-11-21T02:52:21;5.00;;;2.38;;
46767;SDS011;69007;48.978;18.066;2023-11-21T02:54:46;3.60;;;2.00;;
46767;SDS011;69007;48.978;18.066;2023-11-21T02:57:12;4.10;;;1.90;;
46767;SDS011;69007;48.978;18.066;2023-11-21T02:59:38;5.13;;;2.00;;
46767;SDS011;69007;48.978;18.066;2023-11-21T03:02:03;3.25;;;1.90;;
46767;SDS011;69007;48.978;18.066;2023-11-21T03:04:29;6.00;;;2.42;;
46767;SDS011;69007;48.978;18.066;2023-11-21T03:06:54;3.25;;;2.35;;
46767;SDS011;69007;48.978;18.066;2023-11-21T03:09:19;6.80;;;2.05;;
46767;SDS011;69007;48.978;18.066;2023-11-21T03:11:45;13.63;;;1.92;;
46767;SDS011;69007;48.978;18.066;2023-11-21T03:14:10;5.85;;;1.90;;
46767;SDS011;69007;48.978;18.066;2023-11-21T03:16:35;9.98;;;2.30;;
46767;SDS011;69007;48.978;18.066;2023-11-21T03:19:03;6.20;;;2.13;;
46767;SDS011;69007;48.978;18.066;2023-11-21T03:21:30;3.83;;;2.00;;
46767;SDS011;69007;48.978;18.066;2023-11-21T03:23:55;13.00;;;2.28;;
46767;SDS011;69007;48.978;18.066;2023-11-21T03:26:21;3.20;;;1.90;;
46767;SDS011;69007;48.978;18.066;2023-11-21T03:28:46;4.50;;;2.70;;
46767;SDS011;69007;48.978;18.066;2023-11-21T03:31:11;7.60;;;2.65;;
46767;SDS011;69007;48.978;18.066;2023-11-21T03:33:37;6.60;;;2.40;;
46767;SDS011;69007;48.978;18.066;2023-11-21T03:36:02;3.55;;;2.25;;
46767;SDS011;69007;48.978;18.066;2023-11-21T03:38:28;4.57;;;2.45;;
46767;SDS011;69007;48.978;18.066;2023-11-21T03:40:54;10.88;;;2.38;;
46767;SDS011;69007;48.978;18.066;2023-11-21T03:43:19;7.88;;;2.30;;
46767;SDS011;69007;48.978;18.066;2023-11-21T03:45:45;5.15;;;2.70;;
46767;SDS011;69007;48.978;18.066;2023-11-21T03:48:11;2.78;;;2.33;;
46767;SDS011;69007;48.978;18.066;2023-11-21T03:50:37;7.22;;;2.25;;
46767;SDS011;69007;48.978;18.066;2023-11-21T03:53:03;1.73;;;1.50;;
46767;SDS011;69007;48.978;18.066;2023-11-21T03:55:29;5.05;;;1.88;;
46767;SDS011;69007;48.978;18.066;2023-11-21T03:57:56;8.68;;;2.00;;
46767;SDS011;69007;48.978;18.066;2023-11-21T04:00:22;7.13;;;2.38;;
46767;SDS011;69007;48.978;18.066;2023-11-21T04:02:47;3.40;;;2.20;;
46767;SDS011;69007;48.978;18.066;2023-11-21T04:05:13;3.67;;;2.20;;
46767;SDS011;69007;48.978;18.066;2023-11-21T04:07:38;2.42;;;1.85;;
46767;SDS011;69007;48.978;18.066;2023-11-21T04:10:07;3.92;;;2.42;;
46767;SDS011;69007;48.978;18.066;2023-11-21T04:12:34;4.63;;;2.15;;
46767;SDS011;69007;48.978;18.066;2023-11-21T04:15:00;6.25;;;2.17;;
46767;SDS011;69007;48.978;18.066;2023-11-21T04:17:25;2.60;;;2.10;;
46767;SDS011;69007;48.978;18.066;2023-11-21T04:19:50;4.63;;;2.65;;
46767;SDS011;69007;48.978;18.066;2023-11-21T04:22:16;3.20;;;2.20;;
46767;SDS011;69007;48.978;18.066;2023-11-21T04:24:41;5.18;;;2.22;;
46767;SDS011;69007;48.978;18.066;2023-11-21T04:27:07;6.35;;;2.55;;
46767;SDS011;69007;48.978;18.066;2023-11-21T04:29:32;2.53;;;2.13;;
46767;SDS011;69007;48.978;18.066;2023-11-21T04:31:58;12.38;;;2.50;;
46767;SDS011;69007;48.978;18.066;2023-11-21T04:34:23;11.20;;;3.22;;
46767;SDS011;69007;48.978;18.066;2023-11-21T04:36:49;2.80;;;2.00;;
46767;SDS011;69007;48.978;18.066;2023-11-21T04:39:15;6.53;;;2.17;;
46767;SDS011;69007;48.978;18.066;2023-11-21T04:41:40;11.57;;;2.88;;
46767;SDS011;69007;48.978;18.066;2023-11-21T04:44:06;5.18;;;2.17;;
46767;SDS011;69007;48.978;18.066;2023-11-21T04:46:31;6.65;;;2.40;;
46767;SDS011;69007;48.978;18.066;2023-11-21T04:48:57;3.88;;;2.25;;
46767;SDS011;69007;48.978;18.066;2023-11-21T04:51:23;4.90;;;2.17;;
46767;SDS011;69007;48.978;18.066;2023-11-21T04:53:48;4.25;;;2.40;;
46767;SDS011;69007;48.978;18.066;2023-11-21T04:56:13;8.45;;;2.42;;
46767;SDS011;69007;48.978;18.066;2023-11-21T04:58:39;8.38;;;2.80;;
46767;SDS011;69007;48.978;18.066;2023-11-21T05:01:05;9.30;;;2.47;;
46767;SDS011;69007;48.978;18.066;2023-11-21T05:03:32;8.40;;;2.53;;
46767;SDS011;69007;48.978;18.066;2023-11-21T05:05:57;8.63;;;3.20;;
46767;SDS011;69007;48.978;18.066;2023-11-21T05:08:22;5.85;;;2.40;;
46767;SDS011;69007;48.978;18.066;2023-11-21T05:10:48;5.00;;;2.97;;
46767;SDS011;69007;48.978;18.066;2023-11-21T05:13:14;6.65;;;3.33;;
46767;SDS011;69007;48.978;18.066;2023-11-21T05:15:42;5.03;;;2.45;;
46767;SDS011;69007;48.978;18.066;2023-11-21T05:18:08;3.15;;;2.20;;
46767;SDS011;69007;48.978;18.066;2023-11-21T05:20:34;8.93;;;4.35;;
46767;SDS011;69007;48.978;18.066;2023-11-21T05:22:59;9.60;;;2.92;;
46767;SDS011;69007;48.978;18.066;2023-11-21T05:25:24;9.52;;;2.90;;
46767;SDS011;69007;48.978;18.066;2023-11-21T05:27:50;3.28;;;2.10;;
46767;SDS011;69007;48.978;18.066;2023-11-21T05:30:15;5.03;;;2.17;;
46767;SDS011;69007;48.978;18.066;2023-11-21T05:32:40;8.10;;;2.33;;
46767;SDS011;69007;48.978;18.066;2023-11-21T05:35:09;9.45;;;2.65;;
46767;SDS011;69007;48.978;18.066;2023-11-21T05:37:39;4.18;;;2.05;;
46767;SDS011;69007;48.978;18.066;2023-11-21T05:40:05;5.03;;;2.30;;
46767;SDS011;69007;48.978;18.066;2023-11-21T05:42:32;4.15;;;2.30;;
46767;SDS011;69007;48.978;18.066;2023-11-21T05:44:58;3.78;;;3.20;;
46767;SDS011;69007;48.978;18.066;2023-11-21T05:47:54;8.70;;;4.00;;
46767;SDS011;69007;48.978;18.066;2023-11-21T05:50:20;8.05;;;4.68;;
46767;SDS011;69007;48.978;18.066;2023-11-21T05:52:46;4.32;;;3.92;;
46767;SDS011;69007;48.978;18.066;2023-11-21T05:55:12;7.40;;;4.68;;
46767;SDS011;69007;48.978;18.066;2023-11-21T05:57:38;4.65;;;3.65;;
46767;SDS011;69007;48.978;18.066;2023-11-21T06:00:08;6.10;;;2.97;;
46767;SDS011;69007;48.978;18.066;2023-11-21T06:02:50;9.67;;;4.23;;
46767;SDS011;69007;48.978;18.066;2023-11-21T06:05:18;7.43;;;2.40;;
46767;SDS011;69007;48.978;18.066;2023-11-21T06:07:44;9.55;;;2.28;;
46767;SDS011;69007;48.978;18.066;2023-11-21T06:10:11;6.03;;;2.78;;
46767;SDS011;69007;48.978;18.066;2023-11-21T06:12:39;15.30;;;4.60;;
46767;SDS011;69007;48.978;18.066;2023-11-21T06:15:08;9.48;;;4.38;;
46767;SDS011;69007;48.978;18.066;2023-11-21T06:17:34;6.65;;;3.47;;
46767;SDS011;69007;48.978;18.066;2023-11-21T06:20:04;8.45;;;3.80;;
46767;SDS011;69007;48.978;18.066;2023-11-21T06:22:37;4.95;;;3.38;;
46767;SDS011;69007;48.978;18.066;2023-11-21T06:25:03;4.80;;;2.92;;
46767;SDS011;69007;48.978;18.066;2023-11-21T06:27:40;4.35;;;2.30;;
46767;SDS011;69007;48.978;18.066;2023-11-21T06:30:07;3.72;;;3.25;;
46767;SDS011;69007;48.978;18.066;2023-11-21T06:32:34;9.18;;;3.33;;
46767;SDS011;69007;48.978;18.066;2023-11-21T06:35:01;4.32;;;2.63;;
46767;SDS011;69007;48.978;18.066;2023-11-21T06:37:29;5.72;;;2.60;;
46767;SDS011;69007;48.978;18.066;2023-11-21T06:39:56;3.55;;;2.33;;
46767;SDS011;69007;48.978;18.066;2023-11-21T06:42:23;7.60;;;2.53;;
46767;SDS011;69007;48.978;18.066;2023-11-21T06:44:49;3.20;;;2.67;;
46767;SDS011;69007;48.978;18.066;2023-11-21T06:47:16;9.45;;;2.83;;
46767;SDS011;69007;48.978;18.066;2023-11-21T06:49:42;5.25;;;2.78;;
46767;SDS011;69007;48.978;18.066;2023-11-21T06:52:08;6.80;;;2.75;;
46767;SDS011;69007;48.978;18.066;2023-11-21T06:54:34;3.80;;;2.20;;
46767;SDS011;69007;48.978;18.066;2023-11-21T06:56:59;2.83;;;2.10;;
46767;SDS011;69007;48.978;18.066;2023-11-21T06:59:25;7.85;;;2.75;;
46767;SDS011;69007;48.978;18.066;2023-11-21T07:01:53;6.13;;;4.20;;
46767;SDS011;69007;48.978;18.066;2023-11-21T07:04:18;13.98;;;7.80;;
46767;SDS011;69007;48.978;18.066;2023-11-21T07:06:43;19.50;;;11.05;;
46767;SDS011;69007;48.978;18.066;2023-11-21T07:09:09;20.55;;;10.68;;
46767;SDS011;69007;48.978;18.066;2023-11-21T07:11:36;9.27;;;6.90;;
46767;SDS011;69007;48.978;18.066;2023-11-21T07:14:03;6.47;;;4.25;;
46767;SDS011;69007;48.978;18.066;2023-11-21T07:16:32;11.60;;;3.78;;
46767;SDS011;69007;48.978;18.066;2023-11-21T07:19:04;7.50;;;2.97;;
46767;SDS011;69007;48.978;18.066;2023-11-21T07:21:33;4.07;;;1.80;;
46767;SDS011;69007;48.978;18.066;2023-11-21T07:24:02;3.50;;;1.85;;
46767;SDS011;69007;48.978;18.066;2023-11-21T07:26:29;3.80;;;1.90;;
46767;SDS011;69007;48.978;18.066;2023-11-21T07:28:54;15.95;;;9.68;;
46767;SDS011;69007;48.978;18.066;2023-11-21T07:31:21;27.42;;;15.00;;
46767;SDS011;69007;48.978;18.066;2023-11-21T07:33:47;29.13;;;14.60;;
46767;SDS011;69007;48.978;18.066;2023-11-21T07:36:12;34.17;;;18.17;;
46767;SDS011;69007;48.978;18.066;2023-11-21T07:38:38;25.73;;;14.45;;
46767;SDS011;69007;48.978;18.066;2023-11-21T07:41:04;19.17;;;10.50;;
46767;SDS011;69007;48.978;18.066;2023-11-21T07:43:30;23.30;;;10.02;;
46767;SDS011;69007;48.978;18.066;2023-11-21T07:46:00;15.70;;;8.55;;
46767;SDS011;69007;48.978;18.066;2023-11-21T07:48:27;16.85;;;9.48;;
46767;SDS011;69007;48.978;18.066;2023-11-21T07:50:53;14.70;;;9.25;;
46767;SDS011;69007;48.978;18.066;2023-11-21T07:53:19;10.52;;;6.88;;
46767;SDS011;69007;48.978;18.066;2023-11-21T07:55:44;16.40;;;10.13;;
46767;SDS011;69007;48.978;18.066;2023-11-21T07:58:12;17.92;;;10.25;;
46767;SDS011;69007;48.978;18.066;2023-11-21T08:00:37;12.13;;;7.60;;
46767;SDS011;69007;48.978;18.066;2023-11-21T08:03:04;12.32;;;7.70;;
46767;SDS011;69007;48.978;18.066;2023-11-21T08:05:30;13.80;;;7.20;;
46767;SDS011;69007;48.978;18.066;2023-11-21T08:07:56;11.93;;;4.32;;
46767;SDS011;69007;48.978;18.066;2023-11-21T08:10:21;6.10;;;2.72;;
46767;SDS011;69007;48.978;18.066;2023-11-21T08:12:47;10.60;;;4.55;;
46767;SDS011;69007;48.978;18.066;2023-11-21T08:15:13;29.55;;;18.17;;
46767;SDS011;69007;48.978;18.066;2023-11-21T08:17:39;60.22;;;34.15;;
46767;SDS011;69007;48.978;18.066;2023-11-21T08:20:05;48.38;;;28.50;;
46767;SDS011;69007;48.978;18.066;2023-11-21T08:22:31;39.65;;;23.50;;
46767;SDS011;69007;48.978;18.066;2023-11-21T08:24:57;63.75;;;34.58;;
46767;SDS011;69007;48.978;18.066;2023-11-21T08:27:23;68.20;;;29.23;;
46767;SDS011;69007;48.978;18.066;2023-11-21T08:29:48;23.52;;;12.27;;
46767;SDS011;69007;48.978;18.066;2023-11-21T08:32:14;18.30;;;11.45;;
46767;SDS011;69007;48.978;18.066;2023-11-21T08:34:41;10.90;;;4.93;;
46767;SDS011;69007;48.978;18.066;2023-11-21T08:37:09;9.68;;;4.40;;
46767;SDS011;69007;48.978;18.066;2023-11-21T08:39:36;7.18;;;3.50;;
46767;SDS011;69007;48.978;18.066;2023-11-21T08:42:02;5.22;;;3.30;;
46767;SDS011;69007;48.978;18.066;2023-11-21T08:44:28;5.93;;;3.15;;
46767;SDS011;69007;48.978;18.066;2023-11-21T08:46:55;8.23;;;3.17;;
46767;SDS011;69007;48.978;18.066;2023-11-21T08:49:20;10.50;;;3.53;;
46767;SDS011;69007;48.978;18.066;2023-11-21T08:51:46;7.25;;;4.47;;
46767;SDS011;69007;48.978;18.066;2023-11-21T08:54:11;15.45;;;8.93;;
46767;SDS011;69007;48.978;18.066;2023-11-21T08:56:37;9.40;;;5.10;;
46767;SDS011;69007;48.978;18.066;2023-11-21T08:59:02;7.85;;;4.32;;
46767;SDS011;69007;48.978;18.066;2023-11-21T09:01:28;6.50;;;3.85;;
46767;SDS011;69007;48.978;18.066;2023-11-21T09:03:56;5.55;;;3.45;;
46767;SDS011;69007;48.978;18.066;2023-11-21T09:06:24;7.35;;;3.60;;
46767;SDS011;69007;48.978;18.066;2023-11-21T09:08:50;5.00;;;2.92;;
46767;SDS011;69007;48.978;18.066;2023-11-21T09:11:16;7.15;;;3.50;;
46767;SDS011;69007;48.978;18.066;2023-11-21T09:13:42;5.85;;;3.60;;
46767;SDS011;69007;48.978;18.066;2023-11-21T09:16:07;7.57;;;3.90;;
46767;SDS011;69007;48.978;18.066;2023-11-21T09:18:33;8.95;;;3.65;;
46767;SDS011;69007;48.978;18.066;2023-11-21T09:20:59;8.52;;;4.20;;
46767;SDS011;69007;48.978;18.066;2023-11-21T09:23:24;8.57;;;4.70;;
46767;SDS011;69007;48.978;18.066;2023-11-21T09:25:50;10.30;;;4.75;;
46767;SDS011;69007;48.978;18.066;2023-11-21T09:28:16;7.38;;;4.90;;
46767;SDS011;69007;48.978;18.066;2023-11-21T09:30:42;18.75;;;10.05;;
46767;SDS011;69007;48.978;18.066;2023-11-21T09:33:08;14.88;;;7.63;;
46767;SDS011;69007;48.978;18.066;2023-11-21T09:35:36;16.23;;;8.07;;
46767;SDS011;69007;48.978;18.066;2023-11-21T09:38:03;8.98;;;4.68;;
46767;SDS011;69007;48.978;18.066;2023-11-21T09:40:30;10.60;;;6.28;;
46767;SDS011;69007;48.978;18.066;2023-11-21T09:42:58;11.55;;;6.55;;
46767;SDS011;69007;48.978;18.066;2023-11-21T09:45:32;9.32;;;5.68;;
46767;SDS011;69007;48.978;18.066;2023-11-21T09:48:00;6.90;;;4.85;;
46767;SDS011;69007;48.978;18.066;2023-11-21T09:50:26;8.63;;;5.22;;
46767;SDS011;69007;48.978;18.066;2023-11-21T09:52:57;9.10;;;5.45;;
46767;SDS011;69007;48.978;18.066;2023-11-21T09:55:26;11.98;;;6.75;;
46767;SDS011;69007;48.978;18.066;2023-11-21T09:57:54;12.27;;;7.55;;
46767;SDS011;69007;48.978;18.066;2023-11-21T10:00:22;7.07;;;5.50;;
46767;SDS011;69007;48.978;18.066;2023-11-21T10:02:49;15.43;;;6.50;;
46767;SDS011;69007;48.978;18.066;2023-11-21T10:05:15;17.10;;;7.25;;
46767;SDS011;69007;48.978;18.066;2023-11-21T10:07:42;11.93;;;8.23;;
46767;SDS011;69007;48.978;18.066;2023-11-21T10:10:10;14.38;;;8.80;;
46767;SDS011;69007;48.978;18.066;2023-11-21T10:12:35;9.77;;;5.68;;
46767;SDS011;69007;48.978;18.066;2023-11-21T10:15:03;6.13;;;4.18;;
46767;SDS011;69007;48.978;18.066;2023-11-21T10:17:32;13.10;;;4.97;;
46767;SDS011;69007;48.978;18.066;2023-11-21T10:20:08;4.68;;;3.42;;
46767;SDS011;69007;48.978;18.066;2023-11-21T10:22:45;6.68;;;3.85;;
46767;SDS011;69007;48.978;18.066;2023-11-21T10:25:11;5.80;;;4.00;;
46767;SDS011;69007;48.978;18.066;2023-11-21T10:27:40;4.32;;;3.03;;
46767;SDS011;69007;48.978;18.066;2023-11-21T10:30:07;7.95;;;3.72;;
46767;SDS011;69007;48.978;18.066;2023-11-21T10:32:41;6.85;;;2.70;;
46767;SDS011;69007;48.978;18.066;2023-11-21T10:35:07;5.90;;;3.28;;
46767;SDS011;69007;48.978;18.066;2023-11-21T10:37:41;7.60;;;3.33;;
46767;SDS011;69007;48.978;18.066;2023-11-21T10:40:08;5.68;;;3.10;;
46767;SDS011;69007;48.978;18.066;2023-11-21T10:42:38;7.03;;;3.17;;
46767;SDS011;69007;48.978;18.066;2023-11-21T10:45:04;3.90;;;2.80;;
46767;SDS011;69007;48.978;18.066;2023-11-21T10:47:38;6.13;;;3.20;;
46767;SDS011;69007;48.978;18.066;2023-11-21T10:50:07;4.75;;;3.60;;
46767;SDS011;69007;48.978;18.066;2023-11-21T10:52:36;14.52;;;8.60;;
46767;SDS011;69007;48.978;18.066;2023-11-21T10:55:12;8.65;;;5.60;;
46767;SDS011;69007;48.978;18.066;2023-11-21T10:57:41;10.45;;;5.57;;
46767;SDS011;69007;48.978;18.066;2023-11-21T11:00:07;9.20;;;6.05;;
46767;SDS011;69007;48.978;18.066;2023-11-21T11:02:37;12.60;;;5.70;;
46767;SDS011;69007;48.978;18.066;2023-11-21T11:05:03;9.35;;;5.65;;
46767;SDS011;69007;48.978;18.066;2023-11-21T11:07:31;6.28;;;5.40;;
46767;SDS011;69007;48.978;18.066;2023-11-21T11:09:59;5.70;;;4.32;;
46767;SDS011;69007;48.978;18.066;2023-11-21T11:12:25;5.75;;;4.57;;
46767;SDS011;69007;48.978;18.066;2023-11-21T11:14:51;6.05;;;4.80;;
46767;SDS011;69007;48.978;18.066;2023-11-21T11:17:17;6.55;;;4.88;;
46767;SDS011;69007;48.978;18.066;2023-11-21T11:19:45;6.78;;;4.90;;
46767;SDS011;69007;48.978;18.066;2023-11-21T11:27:51;7.80;;;5.25;;
46767;SDS011;69007;48.978;18.066;2023-11-21T11:30:27;11.02;;;5.53;;
46767;SDS011;69007;48.978;18.066;2023-11-21T11:33:10;9.82;;;5.90;;
46767;SDS011;69007;48.978;18.066;2023-11-21T11:36:00;10.40;;;7.00;;
46767;SDS011;69007;48.978;18.066;2023-11-21T11:38:31;6.38;;;4.68;;
46767;SDS011;69007;48.978;18.066;2023-11-21T11:41:03;8.25;;;4.80;;
46767;SDS011;69007;48.978;18.066;2023-11-21T11:43:31;5.65;;;4.10;;
46767;SDS011;69007;48.978;18.066;2023-11-21T11:46:09;8.52;;;4.80;;
46767;SDS011;69007;48.978;18.066;2023-11-21T11:48:38;7.45;;;4.97;;
46767;SDS011;69007;48.978;18.066;2023-11-21T11:51:14;6.97;;;4.75;;
46767;SDS011;69007;48.978;18.066;2023-11-21T11:53:42;10.02;;;4.72;;
46767;SDS011;69007;48.978;18.066;2023-11-21T11:56:19;8.23;;;5.38;;
46767;SDS011;69007;48.978;18.066;2023-11-21T11:58:51;6.63;;;4.57;;
46767;SDS011;69007;48.978;18.066;2023-11-21T12:01:18;10.65;;;5.22;;
46767;SDS011;69007;48.978;18.066;2023-11-21T12:03:44;6.50;;;4.82;;
46767;SDS011;69007;48.978;18.066;2023-11-21T12:06:33;7.88;;;5.47;;
46767;SDS011;69007;48.978;18.066;2023-11-21T12:09:01;7.32;;;4.88;;
46767;SDS011;69007;48.978;18.066;2023-11-21T12:11:30;9.75;;;5.20;;
46767;SDS011;69007;48.978;18.066;2023-11-21T12:13:57;8.70;;;4.93;;
46767;SDS011;69007;48.978;18.066;2023-11-21T12:16:24;7.03;;;4.82;;
46767;SDS011;69007;48.978;18.066;2023-11-21T12:18:52;9.10;;;5.07;;
46767;SDS011;69007;48.978;18.066;2023-11-21T12:21:18;8.18;;;4.40;;
46767;SDS011;69007;48.978;18.066;2023-11-21T12:23:44;7.88;;;4.68;;
46767;SDS011;69007;48.978;18.066;2023-11-21T12:26:12;8.73;;;5.07;;
46767;SDS011;69007;48.978;18.066;2023-11-21T12:28:38;6.45;;;4.72;;
46767;SDS011;69007;48.978;18.066;2023-11-21T12:31:03;6.80;;;4.75;;
46767;SDS011;69007;48.978;18.066;2023-11-21T12:33:31;10.30;;;5.03;;
46767;SDS011;69007;48.978;18.066;2023-11-21T12:35:58;7.45;;;5.22;;
46767;SDS011;69007;48.978;18.066;2023-11-21T12:38:23;7.85;;;4.72;;
46767;SDS011;69007;48.978;18.066;2023-11-21T12:40:49;9.98;;;5.22;;
46767;SDS011;69007;48.978;18.066;2023-11-21T12:43:15;10.85;;;5.70;;
46767;SDS011;69007;48.978;18.066;2023-11-21T12:45:43;8.77;;;5.63;;
46767;SDS011;69007;48.978;18.066;2023-11-21T12:48:09;9.77;;;5.45;;
46767;SDS011;69007;48.978;18.066;2023-11-21T12:50:36;8.60;;;5.28;;
46767;SDS011;69007;48.978;18.066;2023-11-21T12:55:37;11.83;;;6.73;;
46767;SDS011;69007;48.978;18.066;2023-11-21T12:58:07;8.82;;;5.40;;
46767;SDS011;69007;48.978;18.066;2023-11-21T13:00:35;7.88;;;5.55;;
46767;SDS011;69007;48.978;18.066;2023-11-21T13:03:07;9.23;;;6.18;;
46767;SDS011;69007;48.978;18.066;2023-11-21T13:05:37;32.40;;;16.15;;
46767;SDS011;69007;48.978;18.066;2023-11-21T13:08:04;39.15;;;20.63;;
46767;SDS011;69007;48.978;18.066;2023-11-21T13:10:36;26.95;;;13.93;;
46767;SDS011;69007;48.978;18.066;2023-11-21T13:13:05;6.45;;;4.40;;
46767;SDS011;69007;48.978;18.066;2023-11-21T13:15:35;6.25;;;3.42;;
46767;SDS011;69007;48.978;18.066;2023-11-21T13:18:05;5.70;;;3.97;;
46767;SDS011;69007;48.978;18.066;2023-11-21T13:20:31;5.60;;;2.92;;
46767;SDS011;69007;48.978;18.066;2023-11-21T13:22:57;3.97;;;2.83;;
46767;SDS011;69007;48.978;18.066;2023-11-21T13:25:27;4.13;;;2.72;;
46767;SDS011;69007;48.978;18.066;2023-11-21T13:27:54;3.10;;;2.47;;
46767;SDS011;69007;48.978;18.066;2023-11-21T13:30:20;3.90;;;2.92;;
46767;SDS011;69007;48.978;18.066;2023-11-21T13:32:55;8.43;;;4.25;;
46767;SDS011;69007;48.978;18.066;2023-11-21T13:35:27;9.25;;;3.25;;
46767;SDS011;69007;48.978;18.066;2023-11-21T13:38:05;5.78;;;3.20;;
46767;SDS011;69007;48.978;18.066;2023-11-21T13:40:37;6.60;;;3.03;;
46767;SDS011;69007;48.978;18.066;2023-11-21T13:43:11;6.10;;;2.53;;
46767;SDS011;69007;48.978;18.066;2023-11-21T13:45:45;3.97;;;2.67;;
46767;SDS011;69007;48.978;18.066;2023-11-21T13:48:12;4.57;;;2.85;;
46767;SDS011;69007;48.978;18.066;2023-11-21T13:50:45;9.68;;;2.92;;
46767;SDS011;69007;48.978;18.066;2023-11-21T13:53:32;3.47;;;2.45;;
46767;SDS011;69007;48.978;18.066;2023-11-21T13:55:59;3.50;;;2.40;;
46767;SDS011;69007;48.978;18.066;2023-11-21T13:58:24;4.85;;;2.42;;
46767;SDS011;69007;48.978;18.066;2023-11-21T14:01:04;6.90;;;3.20;;
46767;SDS011;69007;48.978;18.066;2023-11-21T14:03:31;3.97;;;2.50;;
46767;SDS011;69007;48.978;18.066;2023-11-21T14:06:09;6.80;;;2.90;;
46767;SDS011;69007;48.978;18.066;2023-11-21T14:08:39;3.17;;;2.63;;
46767;SDS011;69007;48.978;18.066;2023-11-21T14:11:06;3.78;;;2.15;;
46767;SDS011;69007;48.978;18.066;2023-11-21T14:13:32;9.52;;;2.15;;
46767;SDS011;69007;48.978;18.066;2023-11-21T14:15:58;2.40;;;2.10;;
46767;SDS011;69007;48.978;18.066;2023-11-21T14:18:26;2.42;;;1.90;;
46767;SDS011;69007;48.978;18.066;2023-11-21T14:21:15;3.28;;;2.22;;
46767;SDS011;69007;48.978;18.066;2023-11-21T14:23:41;6.95;;;2.65;;
46767;SDS011;69007;48.978;18.066;2023-11-21T14:26:08;4.05;;;2.08;;
46767;SDS011;69007;48.978;18.066;2023-11-21T14:28:33;5.47;;;2.30;;
46767;SDS011;69007;48.978;18.066;2023-11-21T14:31:00;5.97;;;3.00;;
46767;SDS011;69007;48.978;18.066;2023-11-21T14:33:27;4.65;;;3.60;;
46767;SDS011;69007;48.978;18.066;2023-11-21T14:35:52;5.03;;;2.42;;
46767;SDS011;69007;48.978;18.066;2023-11-21T14:38:17;3.22;;;2.22;;
46767;SDS011;69007;48.978;18.066;2023-11-21T14:40:43;5.03;;;2.67;;
46767;SDS011;69007;48.978;18.066;2023-11-21T14:43:09;2.45;;;2.25;;